Time;durP1;ratioP1;P1;durP2;ratioP2;P2;SDS_P1;SDS_P2;PMS_P1;PMS_P2;Temp;Humidity;BMP_temperature;BMP_pressure;BME280_temperature;BME280_humidity;BME280_pressure;Samples;Min_cycle;Max_cycle;Signal;HPM_P1;HPM_P2
2023/03/17 00:00:48;;;;;;;7.20;5.33;;;11.00;70.00;;;;;;5027284;28;20463;-66
2023/03/17 00:03:25;;;;;;;5.87;5.27;;;11.00;69.90;;;;;;5026575;28;20768;-66
2023/03/17 00:05:52;;;;;;;8.17;5.07;;;11.00;69.90;;;;;;5026377;28;20462;-66
2023/03/17 00:08:26;;;;;;;5.50;4.57;;;11.00;69.90;;;;;;5032977;28;20450;-66
2023/03/17 00:10:52;;;;;;;7.07;5.10;;;11.00;70.20;;;;;;5024371;28;20435;-66
2023/03/17 00:13:18;;;;;;;6.43;5.20;;;11.00;70.20;;;;;;5034137;28;20430;-66
2023/03/17 00:15:51;;;;;;;6.40;5.50;;;10.90;70.50;;;;;;5029431;28;20439;-65
2023/03/17 00:18:18;;;;;;;6.37;5.30;;;10.70;72.90;;;;;;5030155;28;20533;-66
2023/03/17 00:20:45;;;;;;;7.20;5.83;;;10.60;73.70;;;;;;5030661;28;21283;-66
2023/03/17 00:23:23;;;;;;;5.60;5.10;;;10.50;74.40;;;;;;5030052;28;20438;-66
2023/03/17 00:25:52;;;;;;;5.97;5.30;;;10.40;75.00;;;;;;5035192;28;20460;-64
2023/03/17 00:28:21;;;;;;;8.10;5.53;;;10.40;75.30;;;;;;5035779;28;20431;-65
2023/03/17 00:30:48;;;;;;;8.40;5.77;;;10.50;75.10;;;;;;5031043;28;20518;-65
2023/03/17 00:33:15;;;;;;;7.80;5.87;;;10.40;75.30;;;;;;5026922;28;20439;-65
2023/03/17 00:35:43;;;;;;;14.77;5.93;;;10.50;75.50;;;;;;5034964;28;20522;-65
2023/03/17 00:38:15;;;;;;;7.60;5.60;;;10.40;76.00;;;;;;5032815;28;21324;-65
2023/03/17 00:40:40;;;;;;;7.60;5.27;;;10.40;76.80;;;;;;5029857;28;21039;-65
2023/03/17 00:43:07;;;;;;;9.77;7.50;;;10.40;77.60;;;;;;5033122;28;20662;-65
2023/03/17 00:45:33;;;;;;;9.37;6.60;;;10.30;78.00;;;;;;5030653;28;20180;-65
2023/03/17 00:47:59;;;;;;;10.23;6.17;;;10.40;78.00;;;;;;5029571;28;20836;-65
2023/03/17 00:50:27;;;;;;;9.03;6.43;;;10.40;78.70;;;;;;5033748;28;20438;-65
2023/03/17 00:52:56;;;;;;;8.27;6.63;;;10.40;79.30;;;;;;5029711;28;20554;-65
2023/03/17 00:55:23;;;;;;;8.30;7.20;;;10.30;80.10;;;;;;5026456;28;20436;-65
2023/03/17 00:57:49;;;;;;;13.33;7.27;;;10.30;79.90;;;;;;5029310;28;20458;-65
2023/03/17 01:00:25;;;;;;;7.23;6.33;;;10.30;80.50;;;;;;5028224;28;20423;-65
2023/03/17 01:02:52;;;;;;;7.87;6.60;;;10.30;80.50;;;;;;5023361;28;20161;-65
2023/03/17 01:05:18;;;;;;;9.57;7.10;;;10.40;80.70;;;;;;5025960;28;20424;-65
2023/03/17 01:07:47;;;;;;;14.30;8.03;;;10.30;81.20;;;;;;5029447;28;20455;-65
2023/03/17 01:10:16;;;;;;;10.37;6.47;;;10.30;81.80;;;;;;5026834;28;20434;-65
2023/03/17 01:12:44;;;;;;;8.40;6.40;;;10.30;81.80;;;;;;5025834;28;20435;-65
2023/03/17 01:15:11;;;;;;;9.80;6.40;;;10.30;82.30;;;;;;5030083;28;20781;-65
2023/03/17 01:17:38;;;;;;;8.30;6.87;;;10.30;82.50;;;;;;5028552;28;20599;-65
2023/03/17 01:20:05;;;;;;;10.93;7.17;;;10.30;82.60;;;;;;5026941;28;20446;-65
2023/03/17 01:22:31;;;;;;;11.37;6.63;;;10.30;82.80;;;;;;5024931;28;20427;-65
2023/03/17 01:24:56;;;;;;;7.50;6.70;;;10.30;83.00;;;;;;5033789;28;20430;-65
2023/03/17 01:27:23;;;;;;;7.00;6.30;;;10.30;83.60;;;;;;5027577;28;20577;-65
2023/03/17 01:29:52;;;;;;;20.20;10.97;;;10.30;84.30;;;;;;5035929;28;20482;-66
2023/03/17 01:32:18;;;;;;;9.47;7.37;;;10.30;84.60;;;;;;5030690;28;20846;-65
2023/03/17 01:34:44;;;;;;;11.30;7.20;;;10.30;85.00;;;;;;5032840;28;20442;-65
2023/03/17 01:37:10;;;;;;;11.30;6.90;;;10.30;85.20;;;;;;5027959;28;20560;-65
2023/03/17 01:39:35;;;;;;;8.67;5.80;;;10.30;86.20;;;;;;5023343;28;20441;-65
2023/03/17 01:42:01;;;;;;;7.73;5.90;;;10.20;86.70;;;;;;5028235;28;20497;-65
2023/03/17 01:44:28;;;;;;;9.47;7.03;;;10.10;87.20;;;;;;5027586;28;20245;-65
2023/03/17 01:46:54;;;;;;;7.60;5.70;;;10.10;87.70;;;;;;5030663;28;20454;-65
2023/03/17 01:49:29;;;;;;;8.00;5.60;;;10.20;88.00;;;;;;5028125;28;20434;-65
2023/03/17 01:52:10;;;;;;;7.07;5.43;;;10.10;88.30;;;;;;5032443;28;20430;-65
2023/03/17 01:54:41;;;;;;;10.93;6.23;;;10.10;88.80;;;;;;5029655;28;20794;-65
2023/03/17 01:57:32;;;;;;;8.00;6.07;;;10.10;89.20;;;;;;5024738;28;20546;-65
2023/03/17 02:00:04;;;;;;;7.97;6.30;;;10.10;89.50;;;;;;5032624;28;20438;-65
2023/03/17 02:02:34;;;;;;;8.50;6.00;;;10.00;90.00;;;;;;5030502;28;20448;-65
2023/03/17 02:05:03;;;;;;;7.80;6.30;;;10.00;90.20;;;;;;5030634;28;20435;-65
2023/03/17 02:07:30;;;;;;;10.90;6.60;;;10.00;90.60;;;;;;5022242;28;20472;-65
2023/03/17 02:09:56;;;;;;;10.10;5.67;;;9.90;91.40;;;;;;5026698;28;20447;-65
2023/03/17 02:12:24;;;;;;;10.33;5.87;;;9.90;91.70;;;;;;5024961;28;20430;-65
2023/03/17 02:14:51;;;;;;;9.13;6.43;;;9.90;91.90;;;;;;5026567;28;20566;-65
2023/03/17 02:17:18;;;;;;;10.47;7.80;;;9.90;92.20;;;;;;5026699;28;20486;-67
2023/03/17 02:19:44;;;;;;;8.20;6.17;;;9.90;92.40;;;;;;5033123;28;20454;-65
2023/03/17 02:22:10;;;;;;;10.43;6.40;;;9.80;92.80;;;;;;5023476;28;20565;-65
2023/03/17 02:24:43;;;;;;;8.03;5.30;;;9.80;93.30;;;;;;5043627;28;20467;-65
2023/03/17 02:27:29;;;;;;;7.97;6.70;;;9.80;93.30;;;;;;5027069;28;20303;-64
2023/03/17 02:29:55;;;;;;;7.87;5.60;;;9.80;93.50;;;;;;5030470;28;20430;-65
2023/03/17 02:32:21;;;;;;;11.83;5.70;;;9.80;93.30;;;;;;5024317;28;20876;-65
2023/03/17 02:34:47;;;;;;;15.63;6.17;;;9.70;93.20;;;;;;5039993;28;20624;-65
2023/03/17 02:37:14;;;;;;;7.87;5.53;;;9.60;93.60;;;;;;5027335;28;20682;-65
2023/03/17 02:39:40;;;;;;;8.63;4.90;;;9.50;94.00;;;;;;5027221;28;20419;-65
2023/03/17 02:42:06;;;;;;;5.80;5.20;;;9.50;94.30;;;;;;5026109;28;20455;-65
2023/03/17 02:44:31;;;;;;;6.57;4.93;;;9.40;94.50;;;;;;5030527;28;20172;-65
2023/03/17 02:46:58;;;;;;;9.13;5.90;;;9.30;94.70;;;;;;5029281;28;20459;-65
2023/03/17 02:49:24;;;;;;;8.60;4.93;;;9.30;94.80;;;;;;5028127;28;20235;-65
2023/03/17 02:51:50;;;;;;;8.80;5.43;;;9.30;95.30;;;;;;5029895;28;20930;-65
2023/03/17 02:54:16;;;;;;;7.30;6.13;;;9.30;95.50;;;;;;5029331;28;20459;-65
2023/03/17 02:56:42;;;;;;;8.53;5.10;;;9.30;95.80;;;;;;5026576;28;20470;-65
2023/03/17 02:59:08;;;;;;;12.23;6.73;;;9.20;96.20;;;;;;5029508;28;20180;-65
2023/03/17 03:01:34;;;;;;;5.73;5.13;;;9.20;96.40;;;;;;5032510;28;20204;-65
2023/03/17 03:04:00;;;;;;;7.03;5.30;;;9.20;96.60;;;;;;5032584;28;20921;-65
2023/03/17 03:06:25;;;;;;;7.23;5.90;;;9.20;96.80;;;;;;5025973;28;20462;-65
2023/03/17 03:08:51;;;;;;;7.10;6.40;;;9.20;97.50;;;;;;5031868;28;20666;-64
2023/03/17 03:11:18;;;;;;;8.53;6.47;;;9.10;98.00;;;;;;5033302;28;20191;-65
2023/03/17 03:13:43;;;;;;;6.77;5.40;;;9.10;98.30;;;;;;5031669;28;20459;-65
2023/03/17 03:16:09;;;;;;;8.27;5.77;;;9.10;98.60;;;;;;5031139;28;20468;-65
2023/03/17 03:18:35;;;;;;;8.17;5.87;;;9.10;99.40;;;;;;5030578;28;20233;-65
2023/03/17 03:21:02;;;;;;;8.10;5.57;;;9.00;99.80;;;;;;5030131;28;20200;-64
2023/03/17 03:23:28;;;;;;;9.87;6.10;;;9.00;99.90;;;;;;5029861;28;20462;-65
2023/03/17 03:25:53;;;;;;;11.27;5.70;;;8.90;99.90;;;;;;5029788;28;20430;-65
2023/03/17 03:28:19;;;;;;;10.80;6.70;;;9.00;99.90;;;;;;5030139;28;20195;-65
2023/03/17 03:30:45;;;;;;;10.63;6.20;;;9.00;99.90;;;;;;5032944;28;20180;-65
2023/03/17 03:33:13;;;;;;;11.27;6.43;;;9.00;99.90;;;;;;5031828;28;20315;-65
2023/03/17 03:35:39;;;;;;;10.87;7.33;;;8.90;99.90;;;;;;5034394;28;20437;-65
2023/03/17 03:38:06;;;;;;;9.93;6.80;;;8.90;99.90;;;;;;5025689;28;20454;-65
2023/03/17 03:40:33;;;;;;;10.17;6.60;;;8.90;99.90;;;;;;5035915;28;20453;-65
2023/03/17 03:42:59;;;;;;;8.87;6.33;;;8.90;99.90;;;;;;5029868;28;21014;-65
2023/03/17 03:45:25;;;;;;;10.60;6.27;;;8.90;99.90;;;;;;5029119;28;20490;-64
2023/03/17 03:47:51;;;;;;;10.23;6.00;;;8.90;99.90;;;;;;5033901;28;20467;-65
2023/03/17 03:50:17;;;;;;;7.97;6.90;;;8.90;99.90;;;;;;5031220;28;20427;-65
2023/03/17 03:52:43;;;;;;;9.00;6.37;;;8.90;99.90;;;;;;5027922;28;21158;-65
2023/03/17 03:55:09;;;;;;;8.77;6.60;;;8.80;99.90;;;;;;5034343;28;20472;-65
2023/03/17 03:57:35;;;;;;;8.87;6.47;;;8.80;99.90;;;;;;5029498;28;20225;-65
2023/03/17 04:00:01;;;;;;;7.70;6.03;;;8.80;99.90;;;;;;5033823;28;20822;-65
2023/03/17 04:02:27;;;;;;;10.60;6.37;;;8.80;99.90;;;;;;5029678;28;20203;-65
2023/03/17 04:04:53;;;;;;;7.67;5.97;;;8.80;99.90;;;;;;5034234;28;20422;-65
2023/03/17 04:07:20;;;;;;;8.60;6.10;;;8.80;99.90;;;;;;5028175;28;20283;-65
2023/03/17 04:09:46;;;;;;;9.43;7.00;;;8.80;99.90;;;;;;5028894;28;20172;-65
2023/03/17 04:12:12;;;;;;;8.20;6.37;;;8.80;99.90;;;;;;5031082;28;20453;-65
2023/03/17 04:14:37;;;;;;;8.17;6.47;;;8.70;99.90;;;;;;5031831;28;20437;-65
2023/03/17 04:17:04;;;;;;;8.73;6.20;;;8.70;99.90;;;;;;5029931;28;20206;-65
2023/03/17 04:19:30;;;;;;;8.33;6.83;;;8.70;99.90;;;;;;5033564;28;20195;-65
2023/03/17 04:21:55;;;;;;;9.37;6.50;;;8.70;99.90;;;;;;5029941;28;20951;-65
2023/03/17 04:24:21;;;;;;;9.30;6.70;;;8.60;99.90;;;;;;5028737;28;20434;-65
2023/03/17 04:26:46;;;;;;;10.07;7.10;;;8.60;99.90;;;;;;5027784;28;20249;-65
2023/03/17 04:29:14;;;;;;;8.67;6.70;;;8.50;99.90;;;;;;5031543;28;20241;-65
2023/03/17 04:31:41;;;;;;;10.63;7.07;;;8.50;99.90;;;;;;5028487;28;20553;-65
2023/03/17 04:34:11;;;;;;;9.70;7.30;;;8.50;99.90;;;;;;5037199;28;20519;-65
2023/03/17 04:36:36;;;;;;;11.47;7.60;;;8.50;99.90;;;;;;5032326;28;21177;-65
2023/03/17 04:39:02;;;;;;;8.27;6.53;;;8.50;99.90;;;;;;5032258;28;20426;-65
2023/03/17 04:41:28;;;;;;;8.73;6.37;;;8.50;99.90;;;;;;5027574;28;20259;-65
2023/03/17 04:43:53;;;;;;;11.00;7.67;;;8.40;99.90;;;;;;5029176;28;20439;-65
2023/03/17 04:46:19;;;;;;;8.37;6.60;;;8.40;99.90;;;;;;5027643;28;20215;-64
2023/03/17 04:48:45;;;;;;;9.80;6.90;;;8.40;99.90;;;;;;5032537;28;20180;-65
2023/03/17 04:51:11;;;;;;;11.47;6.57;;;8.30;99.90;;;;;;5029631;28;20192;-65
2023/03/17 04:53:36;;;;;;;13.83;6.77;;;8.30;99.90;;;;;;5028100;28;21834;-65
2023/03/17 04:56:02;;;;;;;7.20;6.10;;;8.20;99.90;;;;;;5031057;28;20188;-65
2023/03/17 04:58:27;;;;;;;9.47;6.97;;;8.20;99.90;;;;;;5029493;28;20214;-65
2023/03/17 05:00:53;;;;;;;11.57;5.93;;;8.10;99.90;;;;;;5021983;28;20294;-66
2023/03/17 05:03:18;;;;;;;8.60;6.13;;;8.10;99.90;;;;;;5027877;28;20180;-64
2023/03/17 05:05:45;;;;;;;8.33;6.33;;;8.00;99.90;;;;;;5035930;28;20650;-65
2023/03/17 05:08:11;;;;;;;6.80;5.57;;;7.90;99.90;;;;;;5035207;28;20221;-65
2023/03/17 05:10:37;;;;;;;8.27;6.33;;;7.80;99.90;;;;;;5032825;28;20998;-65
2023/03/17 05:13:02;;;;;;;7.70;6.43;;;7.70;99.90;;;;;;5030431;28;20180;-65
2023/03/17 05:15:28;;;;;;;12.57;6.13;;;7.80;99.90;;;;;;5028407;28;20294;-65
2023/03/17 05:17:54;;;;;;;11.87;6.70;;;7.80;99.90;;;;;;5026647;28;20200;-65
2023/03/17 05:20:20;;;;;;;8.63;6.27;;;7.70;99.90;;;;;;5029768;28;20278;-65
2023/03/17 05:22:46;;;;;;;7.00;6.13;;;7.60;99.90;;;;;;5027189;28;20658;-65
2023/03/17 05:25:11;;;;;;;9.37;6.03;;;7.60;99.90;;;;;;5025827;28;20554;-66
2023/03/17 05:27:37;;;;;;;8.87;6.70;;;7.60;99.90;;;;;;5029687;28;20457;-66
2023/03/17 05:30:03;;;;;;;11.97;5.87;;;7.60;99.90;;;;;;5031326;28;20252;-66
2023/03/17 05:32:28;;;;;;;8.53;6.33;;;7.60;99.90;;;;;;5029555;28;20234;-66
2023/03/17 05:34:54;;;;;;;8.20;6.00;;;7.60;99.90;;;;;;5029886;28;20441;-66
2023/03/17 05:37:20;;;;;;;11.93;6.43;;;7.60;99.90;;;;;;5028451;28;20199;-66
2023/03/17 05:39:45;;;;;;;8.43;6.20;;;7.50;99.90;;;;;;5028593;28;20648;-66
2023/03/17 05:42:11;;;;;;;9.60;6.40;;;7.30;99.90;;;;;;5025670;28;20243;-66
2023/03/17 05:44:37;;;;;;;7.17;5.33;;;7.40;99.90;;;;;;5032932;28;20619;-66
2023/03/17 05:47:02;;;;;;;8.77;6.70;;;7.50;99.90;;;;;;5024321;28;20195;-66
2023/03/17 05:49:28;;;;;;;10.33;6.70;;;7.60;99.90;;;;;;5023961;28;20169;-66
2023/03/17 05:51:54;;;;;;;9.27;6.70;;;7.50;99.90;;;;;;5029513;28;20189;-66
2023/03/17 05:54:21;;;;;;;9.20;7.40;;;7.40;99.90;;;;;;5027398;28;20188;-65
2023/03/17 05:56:46;;;;;;;6.97;6.13;;;7.30;99.90;;;;;;5032900;28;20462;-64
2023/03/17 05:59:14;;;;;;;7.70;6.43;;;7.30;99.90;;;;;;5027584;28;20427;-64
2023/03/17 06:01:40;;;;;;;9.17;7.27;;;7.30;99.90;;;;;;5032871;28;20388;-64
2023/03/17 06:04:06;;;;;;;9.23;7.80;;;7.20;99.90;;;;;;5029045;28;20435;-64
2023/03/17 06:06:32;;;;;;;8.20;6.90;;;7.20;99.90;;;;;;5031692;28;20218;-64
2023/03/17 06:08:58;;;;;;;10.20;6.90;;;7.20;99.90;;;;;;5028944;28;20425;-64
2023/03/17 06:11:25;;;;;;;9.87;7.50;;;7.20;99.90;;;;;;5013099;28;20439;-64
2023/03/17 06:13:51;;;;;;;10.33;7.57;;;7.20;99.90;;;;;;5025964;28;20453;-64
2023/03/17 06:16:16;;;;;;;8.00;7.03;;;7.30;99.90;;;;;;5025784;28;20485;-64
2023/03/17 06:18:42;;;;;;;8.67;7.43;;;7.30;99.90;;;;;;5022283;28;20187;-64
2023/03/17 06:21:08;;;;;;;9.57;6.50;;;7.40;99.90;;;;;;5026574;28;20253;-64
2023/03/17 06:23:33;;;;;;;16.37;8.43;;;7.40;99.90;;;;;;5025431;28;20263;-64
2023/03/17 06:25:59;;;;;;;11.83;7.30;;;7.40;99.90;;;;;;5030529;28;20188;-64
2023/03/17 06:28:24;;;;;;;8.37;6.43;;;7.40;99.90;;;;;;5032564;28;20180;-64
2023/03/17 06:30:50;;;;;;;9.33;6.10;;;7.30;99.90;;;;;;5029714;28;20184;-64
2023/03/17 06:33:17;;;;;;;5.73;4.40;;;7.40;99.90;;;;;;5029174;28;20176;-64
2023/03/17 06:35:42;;;;;;;4.77;4.27;;;7.50;99.90;;;;;;5026570;28;20184;-64
2023/03/17 06:38:08;;;;;;;5.60;3.97;;;7.50;99.90;;;;;;5025046;28;20439;-64
2023/03/17 06:40:34;;;;;;;7.13;4.03;;;7.50;99.90;;;;;;5025025;28;20697;-64
2023/03/17 06:43:00;;;;;;;5.63;3.70;;;7.60;99.90;;;;;;5023045;28;21109;-65
2023/03/17 06:45:26;;;;;;;4.43;3.60;;;7.60;99.90;;;;;;5024691;28;20695;-64
2023/03/17 06:47:51;;;;;;;4.77;3.73;;;7.70;99.90;;;;;;5026173;28;20461;-67
2023/03/17 06:50:17;;;;;;;6.07;4.53;;;7.70;99.90;;;;;;5027336;28;21014;-64
2023/03/17 06:52:43;;;;;;;7.20;4.30;;;7.80;99.90;;;;;;5028885;28;20207;-64
2023/03/17 06:55:09;;;;;;;5.93;4.57;;;7.90;99.90;;;;;;5033267;28;20647;-64
2023/03/17 06:57:35;;;;;;;6.83;4.00;;;7.90;99.90;;;;;;5028386;28;20765;-64
2023/03/17 07:00:00;;;;;;;5.60;4.20;;;8.00;99.90;;;;;;5031394;28;20450;-64
2023/03/17 07:02:26;;;;;;;5.87;4.90;;;8.10;99.90;;;;;;5024676;28;20559;-64
2023/03/17 07:04:52;;;;;;;7.13;4.90;;;8.20;99.90;;;;;;5031693;28;20287;-64
2023/03/17 07:07:19;;;;;;;9.47;5.60;;;8.30;99.90;;;;;;5018560;28;20489;-64
2023/03/17 07:09:46;;;;;;;30.93;10.87;;;8.40;99.90;;;;;;5028693;28;20182;-65
2023/03/17 07:12:12;;;;;;;17.07;8.67;;;8.40;99.90;;;;;;5034089;28;20460;-66
2023/03/17 07:14:37;;;;;;;12.63;6.70;;;8.40;99.90;;;;;;5025472;28;20465;-65
2023/03/17 07:17:04;;;;;;;17.90;6.60;;;8.40;99.90;;;;;;5027731;28;20235;-65
2023/03/17 07:19:31;;;;;;;10.50;5.50;;;8.50;99.90;;;;;;5028440;28;20191;-65
2023/03/17 07:21:57;;;;;;;6.47;4.90;;;8.60;99.90;;;;;;5027310;28;20453;-65
2023/03/17 07:24:24;;;;;;;9.37;5.53;;;8.60;99.90;;;;;;5027604;28;21080;-65
2023/03/17 07:26:50;;;;;;;5.93;4.93;;;8.70;99.90;;;;;;5029655;28;20578;-65
2023/03/17 07:29:16;;;;;;;6.43;5.30;;;8.70;99.90;;;;;;5027580;28;20484;-65
2023/03/17 07:31:42;;;;;;;8.37;5.70;;;8.80;99.90;;;;;;5026926;28;20810;-65
2023/03/17 07:34:09;;;;;;;10.23;6.27;;;8.80;99.90;;;;;;5031275;28;20188;-65
2023/03/17 07:36:35;;;;;;;10.37;5.60;;;8.90;99.90;;;;;;5032220;28;20457;-65
2023/03/17 07:39:02;;;;;;;9.40;6.73;;;8.90;99.90;;;;;;5024415;28;20423;-66
2023/03/17 07:41:27;;;;;;;9.20;5.80;;;9.00;99.90;;;;;;5029407;28;20552;-68
2023/03/17 07:43:53;;;;;;;10.30;5.93;;;9.10;99.90;;;;;;5031122;28;20542;-65
2023/03/17 07:46:19;;;;;;;9.50;5.30;;;9.20;99.90;;;;;;5031575;28;20665;-65
2023/03/17 07:48:45;;;;;;;7.67;5.67;;;9.30;99.90;;;;;;5033868;28;20187;-65
2023/03/17 07:51:16;;;;;;;7.83;5.43;;;9.40;99.90;;;;;;5032741;28;20427;-65
2023/03/17 07:53:41;;;;;;;15.33;6.20;;;9.50;99.90;;;;;;5031651;28;20557;-65
2023/03/17 07:56:08;;;;;;;7.87;5.43;;;9.60;99.90;;;;;;5035214;28;20444;-66
2023/03/17 07:58:34;;;;;;;8.70;5.47;;;9.70;99.90;;;;;;5034855;28;20557;-65
2023/03/17 08:01:00;;;;;;;6.30;5.80;;;9.70;99.90;;;;;;5038907;28;20463;-65
2023/03/17 08:03:26;;;;;;;8.07;5.37;;;9.80;99.90;;;;;;5030458;28;20442;-65
2023/03/17 08:05:54;;;;;;;9.10;5.13;;;9.80;99.90;;;;;;5033354;28;20431;-65
2023/03/17 08:08:21;;;;;;;5.30;4.50;;;9.90;99.90;;;;;;5033031;28;20202;-65
2023/03/17 08:10:50;;;;;;;12.97;5.80;;;10.00;99.90;;;;;;5030179;28;20588;-66
2023/03/17 08:13:16;;;;;;;8.83;4.90;;;10.10;99.90;;;;;;5034496;28;20825;-65
2023/03/17 08:15:42;;;;;;;9.70;5.50;;;10.20;99.90;;;;;;5029358;28;20445;-66
2023/03/17 08:18:08;;;;;;;6.30;5.57;;;10.20;99.90;;;;;;5030866;28;20536;-66
2023/03/17 08:20:34;;;;;;;7.20;5.30;;;10.30;99.90;;;;;;5034780;28;20485;-66
2023/03/17 08:23:01;;;;;;;7.07;5.00;;;10.40;99.90;;;;;;5028972;28;20828;-66
2023/03/17 08:25:27;;;;;;;14.60;6.13;;;10.40;99.90;;;;;;5034161;28;20554;-66
2023/03/17 08:27:53;;;;;;;7.10;6.23;;;10.40;99.90;;;;;;5031131;28;20449;-66
2023/03/17 08:30:19;;;;;;;6.50;5.80;;;10.50;99.90;;;;;;5034908;28;20513;-66
2023/03/17 08:32:46;;;;;;;9.43;6.10;;;10.50;99.90;;;;;;5030471;28;21176;-65
2023/03/17 08:35:14;;;;;;;6.20;5.53;;;10.60;99.90;;;;;;5034981;28;20435;-65
2023/03/17 08:37:41;;;;;;;5.87;5.27;;;10.70;99.90;;;;;;5029907;28;20442;-65
2023/03/17 08:40:08;;;;;;;9.93;5.87;;;10.70;99.90;;;;;;5031110;28;20517;-66
2023/03/17 08:42:36;;;;;;;6.60;6.00;;;10.70;99.90;;;;;;5024914;28;20973;-65
2023/03/17 08:45:05;;;;;;;7.40;5.00;;;10.80;99.90;;;;;;5028485;28;21011;-65
2023/03/17 08:47:31;;;;;;;7.70;5.60;;;10.80;99.90;;;;;;5030868;28;20528;-66
2023/03/17 08:49:59;;;;;;;14.97;5.70;;;10.90;99.90;;;;;;5033479;28;20522;-66
2023/03/17 08:52:26;;;;;;;7.00;5.83;;;11.00;99.90;;;;;;5028611;28;20752;-65
2023/03/17 08:54:52;;;;;;;8.33;5.63;;;11.00;99.90;;;;;;5027411;28;20974;-65
2023/03/17 08:57:18;;;;;;;8.70;5.53;;;11.00;99.90;;;;;;5031075;28;20503;-65
2023/03/17 08:59:44;;;;;;;9.40;6.53;;;11.10;99.90;;;;;;5032670;28;20419;-66
2023/03/17 09:02:11;;;;;;;7.33;5.73;;;11.10;99.90;;;;;;5031571;28;21188;-65
2023/03/17 09:04:37;;;;;;;7.13;5.40;;;11.10;99.90;;;;;;5028459;28;20423;-65
2023/03/17 09:07:03;;;;;;;5.30;4.80;;;11.20;99.90;;;;;;5031145;28;20466;-65
2023/03/17 09:09:29;;;;;;;8.60;7.13;;;11.30;99.90;;;;;;5033409;28;20528;-66
2023/03/17 09:11:55;;;;;;;7.20;5.80;;;11.40;99.90;;;;;;5027554;28;20503;-65
2023/03/17 09:14:23;;;;;;;6.10;5.07;;;11.50;99.90;;;;;;5033325;28;20422;-65
2023/03/17 09:16:49;;;;;;;5.73;4.97;;;11.60;99.90;;;;;;5033654;28;20196;-65
2023/03/17 09:19:16;;;;;;;8.13;5.27;;;11.80;99.90;;;;;;5034631;28;20796;-65
2023/03/17 09:21:43;;;;;;;6.90;4.90;;;11.90;99.90;;;;;;5015232;28;20468;-66
2023/03/17 09:24:09;;;;;;;9.70;6.00;;;12.00;99.90;;;;;;5029656;28;20426;-65
2023/03/17 09:26:35;;;;;;;7.67;5.73;;;12.00;99.90;;;;;;5029985;28;20438;-65
2023/03/17 09:29:02;;;;;;;6.80;5.60;;;12.20;99.90;;;;;;5028030;28;21272;-65
2023/03/17 09:31:28;;;;;;;5.90;5.30;;;12.40;99.90;;;;;;5035370;28;20473;-66
2023/03/17 09:33:53;;;;;;;8.03;5.40;;;12.60;99.90;;;;;;5027736;28;20427;-65
2023/03/17 09:36:19;;;;;;;7.03;5.33;;;12.60;99.90;;;;;;5028572;28;20203;-65
2023/03/17 09:38:45;;;;;;;6.30;5.67;;;12.70;99.90;;;;;;5028676;28;20187;-65
2023/03/17 09:41:28;;;;;;;8.40;5.67;;;12.80;99.90;;;;;;5025891;28;20203;-65
2023/03/17 09:44:20;;;;;;;8.30;5.43;;;12.90;99.90;;;;;;5032948;28;20893;-65
2023/03/17 09:47:18;;;;;;;9.13;6.37;;;13.00;99.90;;;;;;5032260;28;20684;-65
2023/03/17 09:49:50;;;;;;;7.17;5.47;;;13.10;99.90;;;;;;5025335;28;20430;-65
2023/03/17 09:52:28;;;;;;;7.00;5.60;;;13.00;99.90;;;;;;5029124;28;20870;-65
2023/03/17 09:54:54;;;;;;;8.67;6.17;;;13.00;99.90;;;;;;5021861;28;20427;-65
2023/03/17 09:57:28;;;;;;;7.13;5.63;;;13.10;99.90;;;;;;5028342;28;20916;-64
2023/03/17 10:00:05;;;;;;;8.63;6.00;;;13.10;99.90;;;;;;5032293;28;20434;-65
2023/03/17 10:02:33;;;;;;;6.90;5.97;;;13.20;99.90;;;;;;5035639;28;20565;-65
2023/03/17 10:05:15;;;;;;;8.80;5.17;;;13.30;99.90;;;;;;5034561;28;20955;-65
2023/03/17 10:07:50;;;;;;;7.00;5.60;;;13.30;99.90;;;;;;5029336;28;20454;-65
2023/03/17 10:10:33;;;;;;;6.97;5.40;;;13.40;99.90;;;;;;5032934;28;20438;-65
2023/03/17 10:13:11;;;;;;;7.40;5.70;;;13.40;99.90;;;;;;5029258;28;20908;-65
2023/03/17 10:15:48;;;;;;;6.60;5.23;;;13.50;99.90;;;;;;5029355;28;20430;-65
2023/03/17 10:18:16;;;;;;;6.33;5.10;;;13.70;99.90;;;;;;5025176;28;21239;-66
2023/03/17 10:20:51;;;;;;;8.00;5.60;;;13.90;99.90;;;;;;5029688;28;21046;-65
2023/03/17 10:23:23;;;;;;;6.97;5.57;;;14.10;99.90;;;;;;5025115;28;20450;-66
2023/03/17 10:25:48;;;;;;;6.50;5.27;;;14.30;99.70;;;;;;5032152;28;20433;-65
2023/03/17 10:28:23;;;;;;;7.60;5.73;;;14.50;99.20;;;;;;5029836;28;20438;-65
2023/03/17 10:30:49;;;;;;;7.57;5.30;;;14.60;98.50;;;;;;5032660;28;20169;-66
2023/03/17 10:33:14;;;;;;;7.93;6.17;;;14.90;98.30;;;;;;5030656;28;20803;-66
2023/03/17 10:35:43;;;;;;;9.43;5.40;;;14.90;96.30;;;;;;5026701;28;20264;-65
2023/03/17 10:38:20;;;;;;;7.13;5.63;;;15.10;96.60;;;;;;5029648;28;20208;-66
2023/03/17 10:41:04;;;;;;;7.27;5.57;;;15.40;96.60;;;;;;5024907;28;20466;-66
2023/03/17 10:43:37;;;;;;;7.20;5.97;;;15.60;96.20;;;;;;5023943;28;20423;-65
2023/03/17 10:46:06;;;;;;;6.87;5.30;;;15.80;95.80;;;;;;5030521;28;20430;-66
2023/03/17 10:48:36;;;;;;;8.70;5.60;;;16.00;94.80;;;;;;5026392;28;20434;-66
2023/03/17 10:51:20;;;;;;;7.93;6.13;;;16.10;94.40;;;;;;5041968;28;21011;-65
2023/03/17 10:53:51;;;;;;;7.23;5.23;;;16.30;94.00;;;;;;5025400;28;20436;-65
2023/03/17 10:56:23;;;;;;;9.60;5.50;;;16.40;93.80;;;;;;5028976;28;20455;-66
2023/03/17 10:58:51;;;;;;;5.47;4.80;;;16.50;93.50;;;;;;5027952;28;20433;-66
2023/03/17 11:01:38;;;;;;;6.03;5.20;;;16.50;92.70;;;;;;5028387;28;20467;-66
2023/03/17 11:04:26;;;;;;;7.93;5.17;;;16.60;92.60;;;;;;5032657;28;20426;-66
2023/03/17 11:06:55;;;;;;;6.57;5.00;;;16.80;92.10;;;;;;5032819;28;20531;-66
2023/03/17 11:09:22;;;;;;;6.67;5.17;;;16.90;91.40;;;;;;5029535;28;20423;-66
2023/03/17 11:11:57;;;;;;;5.70;4.87;;;17.00;91.40;;;;;;5029620;28;20825;-66
2023/03/17 11:14:27;;;;;;;6.23;5.00;;;17.20;91.20;;;;;;5031510;28;20537;-66
2023/03/17 11:16:56;;;;;;;7.03;5.60;;;17.30;90.80;;;;;;5028892;28;21089;-66
2023/03/17 11:19:29;;;;;;;7.07;5.00;;;17.40;90.20;;;;;;5030134;28;20446;-66
2023/03/17 11:22:10;;;;;;;5.40;4.67;;;17.60;89.90;;;;;;5027787;28;20493;-66
2023/03/17 11:24:48;;;;;;;10.97;4.47;;;17.70;88.30;;;;;;5033101;28;20473;-66
2023/03/17 11:27:22;;;;;;;6.60;4.20;;;17.80;86.90;;;;;;5029795;28;20503;-66
2023/03/17 11:30:01;;;;;;;6.37;4.63;;;17.90;86.50;;;;;;5034015;28;20779;-66
2023/03/17 11:32:37;;;;;;;6.03;4.57;;;17.90;86.50;;;;;;5037724;28;20469;-66
2023/03/17 11:35:05;;;;;;;5.97;4.60;;;18.00;85.00;;;;;;5034808;28;20462;-66
2023/03/17 11:37:50;;;;;;;7.77;4.80;;;18.20;83.50;;;;;;5034895;28;20575;-66
2023/03/17 11:40:42;;;;;;;6.37;4.43;;;18.30;83.10;;;;;;5034475;28;20443;-65
2023/03/17 11:43:37;;;;;;;5.67;3.93;;;18.50;80.20;;;;;;5037074;28;20803;-66
2023/03/17 11:46:09;;;;;;;6.27;4.20;;;18.60;80.50;;;;;;5033926;28;20873;-66
2023/03/17 11:48:39;;;;;;;6.00;4.37;;;18.90;80.40;;;;;;5024861;28;20796;-66
2023/03/17 11:51:32;;;;;;;6.73;5.33;;;19.00;79.50;;;;;;5036834;28;20430;-66
2023/03/17 11:54:24;;;;;;;7.23;4.73;;;19.30;79.00;;;;;;5031131;28;20437;-67
2023/03/17 11:56:54;;;;;;;11.43;4.43;;;19.40;78.30;;;;;;5033455;28;20512;-66
2023/03/17 11:59:52;;;;;;;5.47;3.60;;;19.60;77.50;;;;;;5032055;28;20437;-66
2023/03/17 12:02:38;;;;;;;5.87;3.97;;;19.70;75.90;;;;;;5032703;28;20516;-65
2023/03/17 12:05:08;;;;;;;7.47;4.83;;;19.70;75.20;;;;;;5029428;28;20947;-65
2023/03/17 12:07:40;;;;;;;5.57;3.97;;;19.70;74.70;;;;;;5035504;28;20494;-65
2023/03/17 12:10:23;;;;;;;5.47;3.87;;;19.70;74.20;;;;;;5033197;28;20738;-65
2023/03/17 12:13:13;;;;;;;5.70;3.97;;;19.80;73.80;;;;;;5040500;28;20452;-66
2023/03/17 12:15:55;;;;;;;5.20;3.87;;;20.00;72.10;;;;;;5031635;28;20446;-65
2023/03/17 12:18:45;;;;;;;6.43;4.03;;;20.30;71.60;;;;;;5035936;28;20539;-66
2023/03/17 12:21:23;;;;;;;6.33;3.97;;;20.80;70.50;;;;;;5031619;28;20477;-66
2023/03/17 12:24:16;;;;;;;4.67;3.53;;;21.10;69.10;;;;;;5032737;28;20947;-66
2023/03/17 12:26:53;;;;;;;11.20;3.57;;;21.30;67.70;;;;;;5034703;28;20454;-66
2023/03/17 12:29:39;;;;;;;4.17;3.67;;;21.30;66.10;;;;;;5032569;28;20419;-65
2023/03/17 12:32:44;;;;;;;6.70;3.83;;;21.30;65.70;;;;;;5031640;28;20458;-66
2023/03/17 12:35:30;;;;;;;5.40;4.03;;;21.20;65.00;;;;;;5035027;28;20868;-66
2023/03/17 12:38:06;;;;;;;4.53;3.70;;;21.10;65.50;;;;;;5026838;28;20454;-66
2023/03/17 12:40:53;;;;;;;4.73;3.87;;;21.00;65.00;;;;;;5032171;28;20441;-65
2023/03/17 12:43:52;;;;;;;5.90;4.03;;;21.00;65.10;;;;;;5032703;28;20474;-66
2023/03/17 12:46:30;;;;;;;4.90;4.13;;;21.00;65.00;;;;;;5035128;28;20976;-68
2023/03/17 12:49:41;;;;;;;6.27;4.00;;;21.30;65.10;;;;;;5024861;28;20423;-65
2023/03/17 12:52:41;;;;;;;3.50;3.13;;;22.20;65.30;;;;;;5030926;28;21204;-66
2023/03/17 12:55:14;;;;;;;4.20;3.80;;;23.90;63.60;;;;;;5033278;28;20426;-66
2023/03/17 12:57:46;;;;;;;5.93;3.30;;;25.90;59.60;;;;;;5025120;28;20450;-66
2023/03/17 13:00:24;;;;;;;4.50;3.30;;;27.60;56.40;;;;;;5029371;28;20504;-67
2023/03/17 13:03:10;;;;;;;3.90;3.50;;;29.00;52.60;;;;;;5024403;28;20473;-65